Time;durP1;ratioP1;P1;durP2;ratioP2;P2;SDS_P1;SDS_P2;PMS_P1;PMS_P2;Temp;Humidity;BMP_temperature;BMP_pressure;BME280_temperature;BME280_humidity;BME280_pressure;Samples;Min_cycle;Max_cycle;Signal;HPM_P1;HPM_P2
2021/01/03 00:00:10;;;;;;;;;;;0.60;99.90;;;;;;5072077;28;20284;-76
2021/01/03 00:02:36;;;;;;;;;;;0.60;99.90;;;;;;5068024;28;20357;-76
2021/01/03 00:05:01;;;;;;;;;;;0.60;99.90;;;;;;5070453;28;19912;-76
2021/01/03 00:07:27;;;;;;;;;;;0.60;99.90;;;;;;5069288;28;20357;-75
2021/01/03 00:09:52;;;;;;;;;;;0.50;99.90;;;;;;5074770;28;20284;-75
2021/01/03 00:12:18;;;;;;;;;;;0.50;99.90;;;;;;5071225;28;19909;-76
2021/01/03 00:14:43;;;;;;;;;;;0.50;99.90;;;;;;5071437;28;19950;-75
2021/01/03 00:17:08;;;;;;;;;;;0.50;99.90;;;;;;5076290;28;19912;-76
2021/01/03 00:19:34;;;;;;;;;;;0.50;99.90;;;;;;5070915;28;19939;-77
2021/01/03 00:21:59;;;;;;;;;;;0.50;99.90;;;;;;5069986;28;19919;-77
2021/01/03 00:24:25;;;;;;;;;;;0.40;99.90;;;;;;5071325;28;20442;-76
2021/01/03 00:26:51;;;;;;;;;;;0.40;99.90;;;;;;5071139;28;19909;-76
2021/01/03 00:29:18;;;;;;;;;;;0.40;99.90;;;;;;5070262;28;20002;-76
2021/01/03 00:31:44;;;;;;;;;;;0.40;99.90;;;;;;5070172;28;19916;-76
2021/01/03 00:34:10;;;;;;;;;;;0.40;99.90;;;;;;5070171;28;20028;-79
2021/01/03 00:36:36;;;;;;;;;;;0.40;99.90;;;;;;5071153;28;20007;-76
2021/01/03 00:39:02;;;;;;;;;;;0.40;99.90;;;;;;5071433;28;19912;-76
2021/01/03 00:41:27;;;;;;;;;;;0.30;99.90;;;;;;5071330;28;19954;-76
2021/01/03 00:43:53;;;;;;;;;;;0.30;99.90;;;;;;5070891;28;19917;-76
2021/01/03 00:46:18;;;;;;;;;;;0.30;99.90;;;;;;5062016;28;19940;-76
2021/01/03 00:48:44;;;;;;;;;;;0.30;99.90;;;;;;5061107;28;20369;-76
2021/01/03 00:51:09;;;;;;;;;;;0.30;99.90;;;;;;5058518;28;19909;-76
2021/01/03 00:53:35;;;;;;;;;;;0.30;99.90;;;;;;5064587;28;20357;-76
2021/01/03 00:56:00;;;;;;;;;;;0.30;99.90;;;;;;5058003;28;19912;-79
2021/01/03 00:58:26;;;;;;;;;;;0.30;99.90;;;;;;5060635;28;19995;-76
2021/01/03 01:00:51;;;;;;;;;;;0.30;99.90;;;;;;5064451;28;19999;-76
2021/01/03 01:03:17;;;;;;;;;;;0.30;99.90;;;;;;5057279;28;19916;-77
2021/01/03 01:05:42;;;;;;;;;;;0.30;99.90;;;;;;5066503;28;20365;-76
2021/01/03 01:08:08;;;;;;;;;;;0.40;99.90;;;;;;5064377;28;19917;-76
2021/01/03 01:10:33;;;;;;;;;;;0.30;99.90;;;;;;5063618;28;19919;-76
2021/01/03 01:13:00;;;;;;;;;;;0.20;99.90;;;;;;5060446;28;20258;-76
2021/01/03 01:15:27;;;;;;;;;;;0.20;99.90;;;;;;5062822;28;19967;-76
2021/01/03 01:17:53;;;;;;;;;;;0.30;99.90;;;;;;5070510;28;19917;-76
2021/01/03 01:20:23;;;;;;;;;;;0.30;99.90;;;;;;5065611;28;20374;-76
2021/01/03 01:22:49;;;;;;;;;;;0.30;99.90;;;;;;5065834;28;19909;-75
2021/01/03 01:25:16;;;;;;;;;;;0.30;99.90;;;;;;5067590;28;20390;-76
2021/01/03 01:27:41;;;;;;;;;;;0.30;99.90;;;;;;5067925;28;19918;-76
2021/01/03 01:30:08;;;;;;;;;;;0.30;99.90;;;;;;5071961;28;20281;-76
2021/01/03 01:32:34;;;;;;;;;;;0.30;99.90;;;;;;5071982;28;19909;-76
2021/01/03 01:34:59;;;;;;;;;;;0.30;99.90;;;;;;5071908;28;20332;-76
2021/01/03 01:37:25;;;;;;;;;;;0.20;99.90;;;;;;5071564;28;19912;-76
2021/01/03 01:39:51;;;;;;;;;;;0.20;99.90;;;;;;5070746;28;19956;-76
2021/01/03 01:42:17;;;;;;;;;;;0.20;99.90;;;;;;5072342;28;19974;-76
2021/01/03 01:44:42;;;;;;;;;;;0.20;99.90;;;;;;5072469;28;19909;-76
2021/01/03 01:47:15;;;;;;;;;;;0.30;99.90;;;;;;5069811;28;19944;-78
2021/01/03 01:49:42;;;;;;;;;;;0.20;99.90;;;;;;5067458;28;19916;-76
2021/01/03 01:52:09;;;;;;;;;;;0.20;99.90;;;;;;5074761;28;20338;-76
2021/01/03 01:54:36;;;;;;;;;;;0.20;99.90;;;;;;5074346;28;19908;-76
2021/01/03 01:57:08;;;;;;;;;;;0.20;99.90;;;;;;5073928;28;19959;-78
2021/01/03 01:59:51;;;;;;;;;;;0.20;99.90;;;;;;5074151;28;19991;-78
2021/01/03 02:02:35;;;;;;;;;;;0.20;99.90;;;;;;5072970;28;19956;-76
2021/01/03 02:05:16;;;;;;;;;;;0.20;99.90;;;;;;5074227;28;19909;-76
2021/01/03 02:07:45;;;;;;;;;;;0.10;99.90;;;;;;5073734;28;20361;-78
2021/01/03 02:10:19;;;;;;;;;;;0.10;99.90;;;;;;5074025;28;20399;-76
2021/01/03 02:12:48;;;;;;;;;;;0.10;99.90;;;;;;5072749;28;19915;-76
2021/01/03 02:15:15;;;;;;;;;;;0.10;99.90;;;;;;5072302;28;19908;-76
2021/01/03 02:17:43;;;;;;;;;;;0.10;99.90;;;;;;5074915;28;19940;-76
2021/01/03 02:20:09;;;;;;;;;;;0.10;99.90;;;;;;5073769;28;20366;-76
2021/01/03 02:22:37;;;;;;;;;;;0.10;99.90;;;;;;5073776;28;19909;-78
2021/01/03 02:25:04;;;;;;;;;;;0.10;99.90;;;;;;5073869;28;19909;-76
2021/01/03 02:27:35;;;;;;;;;;;0.10;99.90;;;;;;5073404;28;20008;-76
2021/01/03 02:30:02;;;;;;;;;;;0.10;99.90;;;;;;5073648;28;19916;-76
2021/01/03 02:32:29;;;;;;;;;;;0.10;99.90;;;;;;5072802;28;20277;-76
2021/01/03 02:34:54;;;;;;;;;;;0.20;99.90;;;;;;5073633;28;19912;-79
2021/01/03 02:37:30;;;;;;;;;;;0.10;99.90;;;;;;5072983;28;19920;-76
2021/01/03 02:39:55;;;;;;;;;;;0.10;99.90;;;;;;5073195;28;20050;-76
2021/01/03 02:42:31;;;;;;;;;;;0.10;99.90;;;;;;5073475;28;19950;-78
2021/01/03 02:44:57;;;;;;;;;;;0.00;99.90;;;;;;5072281;28;19952;-76
2021/01/03 02:47:28;;;;;;;;;;;0.00;99.90;;;;;;5069801;28;20447;-76
2021/01/03 02:49:53;;;;;;;;;;;0.00;99.90;;;;;;5072981;28;19962;-76
2021/01/03 02:52:30;;;;;;;;;;;0.00;99.90;;;;;;5072061;28;19943;-78
2021/01/03 02:54:55;;;;;;;;;;;0.00;99.90;;;;;;5073174;28;19913;-76
2021/01/03 02:57:21;;;;;;;;;;;-0.10;99.90;;;;;;5072737;28;19950;-79
2021/01/03 02:59:47;;;;;;;;;;;-0.10;99.90;;;;;;5072985;28;20355;-76
2021/01/03 03:02:12;;;;;;;;;;;0.00;99.90;;;;;;5071731;28;19908;-76
2021/01/03 03:04:37;;;;;;;;;;;0.00;99.90;;;;;;5073047;28;20285;-77
2021/01/03 03:07:03;;;;;;;;;;;0.00;99.90;;;;;;5071457;28;20003;-76
2021/01/03 03:09:29;;;;;;;;;;;0.00;99.90;;;;;;5072832;28;19908;-76
2021/01/03 03:11:54;;;;;;;;;;;0.10;99.90;;;;;;5073002;28;19974;-76
2021/01/03 03:14:20;;;;;;;;;;;0.10;99.90;;;;;;5072969;28;19908;-77
2021/01/03 03:16:45;;;;;;;;;;;0.00;99.90;;;;;;5070889;28;20284;-76
2021/01/03 03:19:11;;;;;;;;;;;-0.10;99.90;;;;;;5072578;28;19908;-76
2021/01/03 03:21:37;;;;;;;;;;;-0.10;99.90;;;;;;5072721;28;19951;-76
2021/01/03 03:24:02;;;;;;;;;;;0.00;99.90;;;;;;5072802;28;19908;-76
2021/01/03 03:26:28;;;;;;;;;;;0.00;99.90;;;;;;5071617;28;19909;-76
2021/01/03 03:28:53;;;;;;;;;;;-0.10;99.90;;;;;;5072562;28;19946;-76
2021/01/03 03:31:25;;;;;;;;;;;-0.10;99.90;;;;;;5072505;28;19943;-76
2021/01/03 03:33:50;;;;;;;;;;;-0.10;99.90;;;;;;5071299;28;19909;-76
2021/01/03 03:36:15;;;;;;;;;;;-0.10;99.90;;;;;;5072171;28;19912;-76
2021/01/03 03:38:41;;;;;;;;;;;-0.10;99.90;;;;;;5072153;28;19951;-76
2021/01/03 03:41:07;;;;;;;;;;;-0.10;99.90;;;;;;5072384;28;19915;-76
2021/01/03 03:43:32;;;;;;;;;;;-0.10;99.90;;;;;;5072309;28;19912;-76
2021/01/03 03:45:58;;;;;;;;;;;-0.20;99.90;;;;;;5070771;28;19935;-76
2021/01/03 03:48:23;;;;;;;;;;;-0.20;99.90;;;;;;5074574;28;19915;-76
2021/01/03 03:50:49;;;;;;;;;;;-0.20;99.90;;;;;;5072173;28;19909;-76
2021/01/03 03:53:14;;;;;;;;;;;-0.20;99.90;;;;;;5072398;28;20392;-78
2021/01/03 03:55:40;;;;;;;;;;;-0.20;99.90;;;;;;5070444;28;19913;-76
2021/01/03 03:58:06;;;;;;;;;;;-0.30;99.90;;;;;;5072046;28;19916;-76
2021/01/03 04:00:32;;;;;;;;;;;-0.30;99.90;;;;;;5071923;28;19913;-76
2021/01/03 04:02:57;;;;;;;;;;;-0.20;99.90;;;;;;5070637;28;19916;-76
2021/01/03 04:05:25;;;;;;;;;;;-0.20;99.90;;;;;;5071904;28;19915;-76
2021/01/03 04:07:51;;;;;;;;;;;-0.20;99.90;;;;;;5071363;28;19908;-76
2021/01/03 04:10:17;;;;;;;;;;;-0.20;99.90;;;;;;5072198;28;19915;-76
2021/01/03 04:12:42;;;;;;;;;;;-0.20;99.90;;;;;;5071823;28;19915;-76
2021/01/03 04:15:09;;;;;;;;;;;-0.10;99.90;;;;;;5071674;28;19908;-76
2021/01/03 04:17:35;;;;;;;;;;;-0.10;99.90;;;;;;5069958;28;19940;-76
2021/01/03 04:20:00;;;;;;;;;;;-0.20;99.90;;;;;;5071730;28;20192;-76
2021/01/03 04:22:29;;;;;;;;;;;-0.20;99.90;;;;;;5071885;28;20349;-75
2021/01/03 04:24:56;;;;;;;;;;;-0.10;99.90;;;;;;5071741;28;19908;-76
2021/01/03 04:27:21;;;;;;;;;;;-0.10;99.90;;;;;;5071429;28;20389;-76
2021/01/03 04:29:47;;;;;;;;;;;-0.10;99.90;;;;;;5071391;28;19963;-76
2021/01/03 04:32:12;;;;;;;;;;;-0.10;99.90;;;;;;5071734;28;19920;-76
2021/01/03 04:34:38;;;;;;;;;;;-0.20;99.90;;;;;;5070399;28;19959;-76
2021/01/03 04:37:04;;;;;;;;;;;-0.20;99.90;;;;;;5071247;28;19954;-76
2021/01/03 04:39:30;;;;;;;;;;;-0.30;99.90;;;;;;5077774;28;19913;-78
2021/01/03 04:42:06;;;;;;;;;;;-0.30;99.90;;;;;;5078221;28;19955;-76
2021/01/03 04:44:36;;;;;;;;;;;-0.30;99.90;;;;;;5078280;28;19912;-76
2021/01/03 04:47:21;;;;;;;;;;;-0.20;99.90;;;;;;5077639;28;19912;-78
2021/01/03 04:49:51;;;;;;;;;;;-0.20;99.90;;;;;;5076664;28;19908;-76
2021/01/03 04:52:35;;;;;;;;;;;-0.20;99.90;;;;;;5078188;28;19909;-76
2021/01/03 04:55:13;;;;;;;;;;;-0.30;99.90;;;;;;5074501;28;19920;-76
2021/01/03 04:57:48;;;;;;;;;;;-0.30;99.90;;;;;;5077695;28;19912;-76
2021/01/03 05:00:16;;;;;;;;;;;-0.30;99.90;;;;;;5078099;28;20007;-78
2021/01/03 05:02:54;;;;;;;;;;;-0.20;99.90;;;;;;5078146;28;20121;-76
2021/01/03 05:05:20;;;;;;;;;;;-0.20;99.90;;;;;;5077849;28;19913;-76
2021/01/03 05:07:51;;;;;;;;;;;-0.10;99.90;;;;;;5077694;28;20422;-76
2021/01/03 05:10:19;;;;;;;;;;;-0.10;99.90;;;;;;5071739;28;19908;-76
2021/01/03 05:12:50;;;;;;;;;;;0.00;99.90;;;;;;5071637;28;19908;-76
2021/01/03 05:15:22;;;;;;;;;;;0.00;99.90;;;;;;5072017;28;19950;-76
2021/01/03 05:17:47;;;;;;;;;;;-0.10;99.90;;;;;;5078337;28;19908;-76
2021/01/03 05:20:13;;;;;;;;;;;-0.10;99.90;;;;;;5077689;28;19915;-76
2021/01/03 05:22:43;;;;;;;;;;;-0.10;99.90;;;;;;5077984;28;19963;-78
2021/01/03 05:25:09;;;;;;;;;;;-0.20;99.90;;;;;;5077908;28;19916;-78
2021/01/03 05:27:35;;;;;;;;;;;-0.20;99.90;;;;;;5077512;28;20339;-76
2021/01/03 05:30:18;;;;;;;;;;;-0.20;99.90;;;;;;5077680;28;19945;-79
2021/01/03 05:32:46;;;;;;;;;;;-0.20;99.90;;;;;;5077869;28;20316;-76
2021/01/03 05:35:34;;;;;;;;;;;-0.20;99.90;;;;;;5077728;28;20417;-76
2021/01/03 05:38:00;;;;;;;;;;;-0.20;99.90;;;;;;5076863;28;20302;-76
2021/01/03 05:40:29;;;;;;;;;;;-0.20;99.90;;;;;;5063887;28;20895;-76
2021/01/03 05:43:15;;;;;;;;;;;-0.20;99.90;;;;;;5067544;28;19915;-76
2021/01/03 05:46:03;;;;;;;;;;;-0.20;99.90;;;;;;5066400;28;19912;-76
2021/01/03 05:48:34;;;;;;;;;;;-0.30;99.90;;;;;;5072939;28;19909;-76
2021/01/03 05:50:59;;;;;;;;;;;-0.30;99.90;;;;;;5066297;28;19965;-78
2021/01/03 05:53:26;;;;;;;;;;;-0.30;99.90;;;;;;5067512;28;20011;-76
2021/01/03 05:56:03;;;;;;;;;;;-0.20;99.90;;;;;;5061025;28;19991;-76
2021/01/03 05:58:41;;;;;;;;;;;-0.20;99.90;;;;;;5065566;28;19954;-76
2021/01/03 06:01:14;;;;;;;;;;;-0.10;99.90;;;;;;5068198;28;19916;-76
2021/01/03 06:03:39;;;;;;;;;;;-0.10;99.90;;;;;;5063831;28;19964;-79
2021/01/03 06:06:17;;;;;;;;;;;-0.10;99.90;;;;;;5063534;28;19959;-76
2021/01/03 06:08:43;;;;;;;;;;;-0.10;99.90;;;;;;5073724;28;19952;-76
2021/01/03 06:11:16;;;;;;;;;;;-0.10;99.90;;;;;;5073644;28;19909;-76
2021/01/03 06:13:52;;;;;;;;;;;-0.10;99.90;;;;;;5073791;28;19919;-76
2021/01/03 06:16:20;;;;;;;;;;;-0.10;99.90;;;;;;5072979;28;20191;-75
2021/01/03 06:18:50;;;;;;;;;;;-0.20;99.90;;;;;;5073952;28;19947;-75
2021/01/03 06:21:27;;;;;;;;;;;-0.20;99.90;;;;;;5073502;28;20195;-75
2021/01/03 06:24:08;;;;;;;;;;;-0.20;99.90;;;;;;5072128;28;19916;-76
2021/01/03 06:26:40;;;;;;;;;;;-0.20;99.90;;;;;;5067147;28;20384;-75
2021/01/03 06:29:13;;;;;;;;;;;-0.20;99.90;;;;;;5073257;28;19909;-76
2021/01/03 06:31:41;;;;;;;;;;;-0.20;99.90;;;;;;5069485;28;19916;-76
2021/01/03 06:34:19;;;;;;;;;;;-0.20;99.90;;;;;;5062982;28;19916;-76
2021/01/03 06:36:47;;;;;;;;;;;-0.30;99.90;;;;;;5062271;28;19912;-76
2021/01/03 06:39:12;;;;;;;;;;;-0.30;99.90;;;;;;5064720;28;20284;-78
2021/01/03 06:41:45;;;;;;;;;;;-0.20;99.90;;;;;;5064230;28;19909;-75
2021/01/03 06:44:24;;;;;;;;;;;-0.20;99.90;;;;;;5063234;28;19908;-76
2021/01/03 06:47:08;;;;;;;;;;;-0.20;99.90;;;;;;5065872;28;19912;-76
2021/01/03 06:49:36;;;;;;;;;;;-0.30;99.90;;;;;;5064739;28;19916;-76
2021/01/03 06:52:21;;;;;;;;;;;-0.20;99.90;;;;;;5058478;28;20377;-76
2021/01/03 06:55:10;;;;;;;;;;;-0.20;99.90;;;;;;5066228;28;19909;-77
2021/01/03 06:57:36;;;;;;;;;;;-0.20;99.90;;;;;;5062890;28;19912;-77
2021/01/03 07:00:14;;;;;;;;;;;-0.20;99.90;;;;;;5072142;28;19909;-76
2021/01/03 07:02:41;;;;;;;;;;;-0.10;99.90;;;;;;5062059;28;20408;-76
2021/01/03 07:05:07;;;;;;;;;;;-0.10;99.90;;;;;;5069340;28;19912;-76
2021/01/03 07:07:34;;;;;;;;;;;-0.10;99.90;;;;;;5072552;28;19908;-80
2021/01/03 07:10:06;;;;;;;;;;;-0.10;99.90;;;;;;5072846;28;19952;-76
2021/01/03 07:12:33;;;;;;;;;;;0.00;99.90;;;;;;5072850;28;19999;-77
2021/01/03 07:14:59;;;;;;;;;;;0.00;99.90;;;;;;5072828;28;19908;-76
2021/01/03 07:17:41;;;;;;;;;;;0.00;99.90;;;;;;5071964;28;19920;-76
2021/01/03 07:20:10;;;;;;;;;;;-0.10;99.90;;;;;;5080853;28;19964;-76
2021/01/03 07:22:47;;;;;;;;;;;-0.10;99.90;;;;;;5072555;28;19908;-78
2021/01/03 07:25:19;;;;;;;;;;;-0.10;99.90;;;;;;5065368;28;19935;-76
2021/01/03 07:27:52;;;;;;;;;;;0.00;99.90;;;;;;5058914;28;20285;-76
2021/01/03 07:30:25;;;;;;;;;;;0.00;99.90;;;;;;5064031;28;19920;-77
2021/01/03 07:32:54;;;;;;;;;;;-0.10;99.90;;;;;;5064023;28;19908;-75
2021/01/03 07:35:19;;;;;;;;;;;-0.10;99.90;;;;;;5064568;28;20449;-76
2021/01/03 07:37:45;;;;;;;;;;;-0.10;99.90;;;;;;5061765;28;20176;-75
2021/01/03 07:40:15;;;;;;;;;;;-0.10;99.90;;;;;;5064208;28;19916;-76
2021/01/03 07:42:43;;;;;;;;;;;0.00;99.90;;;;;;5060641;28;19923;-76
2021/01/03 07:45:09;;;;;;;;;;;0.10;99.90;;;;;;5065409;28;19915;-76
2021/01/03 07:47:37;;;;;;;;;;;0.20;99.90;;;;;;5068694;28;19908;-76
2021/01/03 07:50:18;;;;;;;;;;;0.20;99.90;;;;;;5071506;28;19912;-76
2021/01/03 07:52:44;;;;;;;;;;;0.30;99.90;;;;;;5066921;28;19908;-76
2021/01/03 07:55:14;;;;;;;;;;;0.30;99.90;;;;;;5068877;28;19923;-76
2021/01/03 07:57:40;;;;;;;;;;;0.40;99.90;;;;;;5064977;28;19958;-79
2021/01/03 08:00:06;;;;;;;;;;;0.40;99.90;;;;;;5070126;28;19944;-76
2021/01/03 08:02:35;;;;;;;;;;;0.40;99.90;;;;;;5071383;28;20394;-76
2021/01/03 08:05:00;;;;;;;;;;;0.50;99.90;;;;;;5071468;28;19908;-79
2021/01/03 08:07:26;;;;;;;;;;;0.40;99.90;;;;;;5069116;28;19924;-76
2021/01/03 08:09:52;;;;;;;;;;;0.50;99.90;;;;;;5069882;28;19962;-76
2021/01/03 08:12:31;;;;;;;;;;;0.50;99.90;;;;;;5058297;28;20432;-76
2021/01/03 08:14:59;;;;;;;;;;;0.50;99.90;;;;;;5049060;28;20357;-76
2021/01/03 08:17:26;;;;;;;;;;;0.50;99.90;;;;;;5050948;28;20007;-76
2021/01/03 08:19:51;;;;;;;;;;;0.50;99.90;;;;;;5051308;28;19909;-76
2021/01/03 08:22:24;;;;;;;;;;;0.50;99.90;;;;;;5051396;28;19978;-76
2021/01/03 08:24:51;;;;;;;;;;;0.40;99.90;;;;;;5051397;28;20419;-76
2021/01/03 08:27:18;;;;;;;;;;;0.50;99.90;;;;;;5050863;28;19909;-80
2021/01/03 08:29:48;;;;;;;;;;;0.50;99.90;;;;;;5051289;28;19954;-76
2021/01/03 08:32:16;;;;;;;;;;;0.60;99.90;;;;;;5067187;28;19920;-76
2021/01/03 08:34:42;;;;;;;;;;;0.60;99.90;;;;;;5051936;28;19913;-76
2021/01/03 08:37:19;;;;;;;;;;;0.60;99.90;;;;;;5051446;28;20373;-76
2021/01/03 08:39:45;;;;;;;;;;;0.70;99.90;;;;;;5051762;28;19954;-76
2021/01/03 08:42:13;;;;;;;;;;;0.80;99.90;;;;;;5050522;28;19909;-76
2021/01/03 08:44:39;;;;;;;;;;;0.90;99.90;;;;;;5051916;28;19908;-76
2021/01/03 08:47:06;;;;;;;;;;;0.90;99.90;;;;;;5051407;28;19976;-76
2021/01/03 08:49:32;;;;;;;;;;;0.80;99.90;;;;;;5050332;28;19921;-76
2021/01/03 08:52:27;;;;;;;;;;;0.80;99.90;;;;;;5052211;28;20368;-78
2021/01/03 08:55:03;;;;;;;;;;;0.90;99.90;;;;;;5051197;28;19995;-76
2021/01/03 08:57:29;;;;;;;;;;;0.90;99.90;;;;;;5050088;28;19913;-76
2021/01/03 08:59:54;;;;;;;;;;;1.00;99.90;;;;;;5050234;28;19909;-76
2021/01/03 09:02:24;;;;;;;;;;;1.00;99.90;;;;;;5051616;28;20253;-78
2021/01/03 09:04:54;;;;;;;;;;;1.10;99.90;;;;;;5051507;28;20391;-79
2021/01/03 09:07:19;;;;;;;;;;;1.10;99.90;;;;;;5051262;28;19909;-76
2021/01/03 09:09:46;;;;;;;;;;;1.20;99.90;;;;;;5051466;28;20391;-76
2021/01/03 09:12:12;;;;;;;;;;;1.20;99.90;;;;;;5051410;28;19991;-78
2021/01/03 09:14:51;;;;;;;;;;;1.20;99.90;;;;;;5051421;28;19909;-78
2021/01/03 09:17:21;;;;;;;;;;;1.30;99.90;;;;;;5050956;28;19939;-76
2021/01/03 09:19:49;;;;;;;;;;;1.30;99.90;;;;;;5051408;28;20350;-76
2021/01/03 09:22:31;;;;;;;;;;;1.40;99.90;;;;;;5066851;28;19909;-76
2021/01/03 09:25:00;;;;;;;;;;;1.50;99.90;;;;;;5052412;28;19959;-76
2021/01/03 09:27:29;;;;;;;;;;;1.50;99.90;;;;;;5054880;28;19909;-79
2021/01/03 09:30:06;;;;;;;;;;;1.50;99.90;;;;;;5054799;28;19916;-76
2021/01/03 09:32:31;;;;;;;;;;;1.50;99.90;;;;;;5055228;28;19915;-76
2021/01/03 09:35:20;;;;;;;;;;;1.50;99.90;;;;;;5053763;28;20003;-76
2021/01/03 09:38:00;;;;;;;;;;;1.50;99.90;;;;;;5055140;28;19936;-76
2021/01/03 09:40:28;;;;;;;;;;;1.50;99.90;;;;;;5055105;28;19905;-75
2021/01/03 09:43:16;;;;;;;;;;;1.50;99.90;;;;;;5054989;28;19909;-76
2021/01/03 09:46:08;;;;;;;;;;;1.40;99.90;;;;;;5054603;28;19916;-76
2021/01/03 09:48:35;;;;;;;;;;;1.40;99.90;;;;;;5045309;28;19936;-76
2021/01/03 09:51:13;;;;;;;;;;;1.40;99.90;;;;;;5054809;28;19916;-78
2021/01/03 09:53:39;;;;;;;;;;;1.40;99.90;;;;;;5054987;28;20250;-79
2021/01/03 09:56:17;;;;;;;;;;;1.30;99.90;;;;;;5054259;28;19913;-77
2021/01/03 09:58:45;;;;;;;;;;;1.30;99.90;;;;;;5054446;28;19920;-75
2021/01/03 10:01:30;;;;;;;;;;;1.30;99.90;;;;;;5054593;28;19970;-76
2021/01/03 10:03:56;;;;;;;;;;;1.30;99.90;;;;;;5069915;28;20361;-76
2021/01/03 10:06:23;;;;;;;;;;;1.30;99.90;;;;;;5054157;28;19909;-76
2021/01/03 10:08:49;;;;;;;;;;;1.40;99.90;;;;;;5054438;28;20293;-76
2021/01/03 10:11:28;;;;;;;;;;;1.40;99.90;;;;;;5053047;28;19909;-76
2021/01/03 10:13:55;;;;;;;;;;;1.40;99.90;;;;;;5054570;28;20392;-76
2021/01/03 10:16:21;;;;;;;;;;;1.40;99.90;;;;;;5053894;28;20397;-76
2021/01/03 10:18:47;;;;;;;;;;;1.40;99.90;;;;;;5054261;28;19931;-76
2021/01/03 10:21:20;;;;;;;;;;;1.40;99.90;;;;;;5054301;28;19955;-76
2021/01/03 10:23:53;;;;;;;;;;;1.40;99.90;;;;;;5054126;28;20352;-76
2021/01/03 10:26:18;;;;;;;;;;;1.40;99.90;;;;;;5053871;28;20352;-76
2021/01/03 10:28:44;;;;;;;;;;;1.40;99.90;;;;;;5069300;28;19952;-76
2021/01/03 10:31:09;;;;;;;;;;;1.40;99.90;;;;;;5053942;28;19917;-76
2021/01/03 10:33:35;;;;;;;;;;;1.40;99.90;;;;;;5053976;28;20069;-76
2021/01/03 10:36:00;;;;;;;;;;;1.40;99.90;;;;;;5053244;28;20300;-76
2021/01/03 10:38:26;;;;;;;;;;;1.40;99.90;;;;;;5053666;28;19943;-78
2021/01/03 10:40:51;;;;;;;;;;;1.40;99.90;;;;;;5052658;28;20003;-76
2021/01/03 10:43:17;;;;;;;;;;;1.30;99.90;;;;;;5053847;28;19909;-76
2021/01/03 10:45:42;;;;;;;;;;;1.30;99.90;;;;;;5053428;28;19913;-76
2021/01/03 10:48:08;;;;;;;;;;;1.30;99.90;;;;;;5053680;28;19909;-76
2021/01/03 10:50:33;;;;;;;;;;;1.30;99.90;;;;;;5053654;28;19970;-76
2021/01/03 10:52:58;;;;;;;;;;;1.30;99.90;;;;;;5053559;28;20281;-76
2021/01/03 10:55:24;;;;;;;;;;;1.40;99.90;;;;;;5053684;28;19945;-79
2021/01/03 10:57:50;;;;;;;;;;;1.50;99.90;;;;;;5053228;28;19913;-76
2021/01/03 11:00:16;;;;;;;;;;;1.50;99.90;;;;;;5053553;28;20409;-75
2021/01/03 11:02:42;;;;;;;;;;;1.50;99.90;;;;;;5053397;28;19920;-76
2021/01/03 11:05:08;;;;;;;;;;;1.60;99.90;;;;;;5053483;28;19982;-75
2021/01/03 11:07:34;;;;;;;;;;;1.60;99.90;;;;;;5052854;28;19909;-76
2021/01/03 11:09:59;;;;;;;;;;;1.70;99.90;;;;;;5053227;28;20385;-75
2021/01/03 11:12:25;;;;;;;;;;;1.70;99.90;;;;;;5053211;28;19909;-76
2021/01/03 11:14:50;;;;;;;;;;;1.70;99.90;;;;;;5053244;28;20285;-79
2021/01/03 11:17:16;;;;;;;;;;;1.70;99.90;;;;;;5051656;28;19912;-76
2021/01/03 11:19:42;;;;;;;;;;;1.80;99.90;;;;;;5052954;28;19912;-76
2021/01/03 11:22:10;;;;;;;;;;;1.80;99.90;;;;;;5053070;28;19995;-76
2021/01/03 11:24:36;;;;;;;;;;;1.80;99.90;;;;;;5053035;28;19909;-76
2021/01/03 11:27:03;;;;;;;;;;;1.80;99.90;;;;;;5051299;28;19913;-76
2021/01/03 11:29:29;;;;;;;;;;;1.90;99.90;;;;;;5052735;28;19915;-76
2021/01/03 11:31:55;;;;;;;;;;;1.90;99.90;;;;;;5051619;28;19912;-76
2021/01/03 11:34:23;;;;;;;;;;;2.00;99.90;;;;;;5052862;28;20388;-78
2021/01/03 11:36:50;;;;;;;;;;;2.00;99.90;;;;;;5052287;28;19917;-76
2021/01/03 11:39:16;;;;;;;;;;;2.10;99.90;;;;;;5051243;28;20003;-76
2021/01/03 11:41:43;;;;;;;;;;;2.10;99.90;;;;;;5052591;28;19983;-78
2021/01/03 11:44:09;;;;;;;;;;;2.10;99.90;;;;;;5052695;28;19986;-76
2021/01/03 11:46:34;;;;;;;;;;;2.20;99.90;;;;;;5052265;28;20303;-76
2021/01/03 11:49:00;;;;;;;;;;;2.20;99.90;;;;;;5051925;28;19909;-75
2021/01/03 11:51:25;;;;;;;;;;;2.20;99.90;;;;;;5052467;28;20004;-76
2021/01/03 11:53:51;;;;;;;;;;;2.20;99.90;;;;;;5052444;28;20293;-76
2021/01/03 11:56:17;;;;;;;;;;;2.30;99.90;;;;;;5052034;28;19912;-75
2021/01/03 11:58:43;;;;;;;;;;;2.30;99.90;;;;;;5052233;28;20003;-75
2021/01/03 12:01:08;;;;;;;;;;;2.40;99.90;;;;;;5052521;28;20004;-76
2021/01/03 12:03:34;;;;;;;;;;;2.50;99.90;;;;;;5052297;28;19909;-76
2021/01/03 12:05:59;;;;;;;;;;;2.50;99.90;;;;;;5067222;28;19963;-76
2021/01/03 12:08:25;;;;;;;;;;;2.50;99.90;;;;;;5052149;28;20277;-76
2021/01/03 12:10:50;;;;;;;;;;;2.50;99.90;;;;;;5050795;28;19944;-76
2021/01/03 12:13:16;;;;;;;;;;;2.60;99.90;;;;;;5052216;28;20258;-76
2021/01/03 12:15:41;;;;;;;;;;;2.60;99.90;;;;;;5051719;28;19920;-76
2021/01/03 12:18:07;;;;;;;;;;;2.60;99.90;;;;;;5067444;28;19959;-76
2021/01/03 12:20:32;;;;;;;;;;;2.60;99.90;;;;;;5051991;28;19913;-78
2021/01/03 12:22:57;;;;;;;;;;;2.70;99.90;;;;;;5067427;28;19914;-76
2021/01/03 12:25:23;;;;;;;;;;;2.70;99.90;;;;;;5051920;28;19969;-76
2021/01/03 12:27:48;;;;;;;;;;;2.70;99.90;;;;;;5051556;28;19909;-77
2021/01/03 12:30:14;;;;;;;;;;;2.70;99.90;;;;;;5051875;28;19917;-77
2021/01/03 12:32:41;;;;;;;;;;;2.70;99.90;;;;;;5050678;28;20157;-76
2021/01/03 12:35:07;;;;;;;;;;;2.70;99.90;;;;;;5050563;28;20007;-76
2021/01/03 12:37:32;;;;;;;;;;;2.70;99.90;;;;;;5051466;28;19917;-79
2021/01/03 12:39:58;;;;;;;;;;;2.70;99.90;;;;;;5051739;28;19916;-76
2021/01/03 12:42:24;;;;;;;;;;;2.70;99.90;;;;;;5050635;28;19982;-76
2021/01/03 12:44:49;;;;;;;;;;;2.70;99.90;;;;;;5050466;28;19909;-76
2021/01/03 12:47:16;;;;;;;;;;;2.70;99.90;;;;;;5051552;28;19912;-77
2021/01/03 12:49:41;;;;;;;;;;;2.80;99.90;;;;;;5051513;28;19913;-76
2021/01/03 12:52:07;;;;;;;;;;;2.70;99.90;;;;;;5051953;28;19978;-78
2021/01/03 12:54:33;;;;;;;;;;;2.70;99.90;;;;;;5051668;28;19909;-76
2021/01/03 12:56:59;;;;;;;;;;;2.70;99.90;;;;;;5051288;28;19999;-76
2021/01/03 12:59:25;;;;;;;;;;;2.70;99.90;;;;;;5053403;28;19908;-76
2021/01/03 13:01:50;;;;;;;;;;;2.70;99.90;;;;;;5055722;28;20408;-76
2021/01/03 13:04:16;;;;;;;;;;;2.70;99.90;;;;;;5055526;28;20004;-76
2021/01/03 13:06:42;;;;;;;;;;;2.60;99.90;;;;;;5053970;28;20426;-76
2021/01/03 13:09:09;;;;;;;;;;;2.60;99.90;;;;;;5055452;28;20432;-76
2021/01/03 13:11:37;;;;;;;;;;;2.50;99.90;;;;;;5054218;28;19908;-76
2021/01/03 13:14:03;;;;;;;;;;;2.50;99.90;;;;;;5055557;28;20381;-76
2021/01/03 13:16:28;;;;;;;;;;;2.40;99.90;;;;;;5055174;28;19912;-76
2021/01/03 13:18:56;;;;;;;;;;;2.40;99.90;;;;;;5055184;28;20361;-76
2021/01/03 13:21:21;;;;;;;;;;;2.40;99.90;;;;;;5055412;28;19909;-76
2021/01/03 13:23:47;;;;;;;;;;;2.40;99.90;;;;;;5055252;28;19999;-75
2021/01/03 13:26:12;;;;;;;;;;;2.40;99.90;;;;;;5053653;28;20272;-76
2021/01/03 13:28:38;;;;;;;;;;;2.40;99.90;;;;;;5055123;28;19909;-76
2021/01/03 13:31:03;;;;;;;;;;;2.40;99.90;;;;;;5055049;28;19916;-75
2021/01/03 13:33:29;;;;;;;;;;;2.30;99.90;;;;;;5055041;28;19948;-76
2021/01/03 13:35:54;;;;;;;;;;;2.20;99.90;;;;;;5054622;28;19916;-76
2021/01/03 13:38:22;;;;;;;;;;;2.10;99.90;;;;;;5054923;28;19909;-78
2021/01/03 13:40:47;;;;;;;;;;;2.10;99.90;;;;;;5054963;28;19934;-76
2021/01/03 13:43:13;;;;;;;;;;;2.00;99.90;;;;;;5054993;28;20377;-76
2021/01/03 13:45:39;;;;;;;;;;;1.90;99.90;;;;;;5054577;28;19909;-76
2021/01/03 13:48:05;;;;;;;;;;;1.80;99.90;;;;;;5054667;28;19930;-77
2021/01/03 13:50:30;;;;;;;;;;;1.80;99.90;;;;;;5054846;28;19909;-77
2021/01/03 13:52:56;;;;;;;;;;;1.80;99.90;;;;;;5054633;28;20392;-76
2021/01/03 13:55:21;;;;;;;;;;;1.80;99.90;;;;;;5054664;28;19923;-76
2021/01/03 13:57:47;;;;;;;;;;;1.90;99.90;;;;;;5054147;28;19920;-75
2021/01/03 14:00:14;;;;;;;;;;;1.90;99.90;;;;;;5054668;28;19984;-79
2021/01/03 14:02:40;;;;;;;;;;;1.90;99.90;;;;;;5054484;28;19999;-76
2021/01/03 14:05:05;;;;;;;;;;;2.00;99.90;;;;;;5053444;28;19983;-76
2021/01/03 14:07:31;;;;;;;;;;;1.90;99.90;;;;;;5054370;28;19912;-76
2021/01/03 14:09:56;;;;;;;;;;;2.00;99.90;;;;;;5054172;28;20392;-77
2021/01/03 14:12:24;;;;;;;;;;;2.00;99.90;;;;;;5053891;28;20444;-76
2021/01/03 14:14:50;;;;;;;;;;;2.00;99.90;;;;;;5054303;28;20304;-76
2021/01/03 14:17:15;;;;;;;;;;;2.10;99.90;;;;;;5052496;28;19962;-76
2021/01/03 14:19:41;;;;;;;;;;;2.10;99.90;;;;;;5054188;28;19917;-78
2021/01/03 14:22:06;;;;;;;;;;;2.10;99.90;;;;;;5054395;28;19969;-76
2021/01/03 14:24:32;;;;;;;;;;;2.00;99.90;;;;;;5054167;28;19913;-76
2021/01/03 14:26:58;;;;;;;;;;;2.10;99.90;;;;;;5069400;28;19931;-76
2021/01/03 14:29:25;;;;;;;;;;;2.10;99.90;;;;;;5054069;28;19909;-76
2021/01/03 14:31:51;;;;;;;;;;;2.10;99.90;;;;;;5053884;28;19916;-76